Latest Weather Observations for Amberley

IDQ60901

Issued at 11:25 pm EST Saturday 25 October 2014 (issued every 10 minutes, with the page automatically refreshed every 10 minutes)

About weather observations | Map of Brisbane area stations | Latest observations for Brisbane area | Other Formats
Station Details ID: 040004 Name: AMBERLEY AMO Lat: -27.63 Lon: 152.71 Height: 24.2 m
Data from the previous 72 hours. | See also: Recent months at Amberley
Date/Time
EST
Tmp

°C
App
Tmp
°C
Dew
Point
°C
Rel
Hum
%
Delta-T

°C
Wind Press
QNH
hPa
Press
MSL
hPa
Rain
since
9 am
mm
Dir
 
Spd
km/h
Gust
km/h
Spd
kts
Gust
kts
25/11:00pm 20.1 20.9 17.3 84 1.7 S 9 11 5 6 1016.9 - 0.0
25/10:30pm 21.1 21.7 17.7 81 2.1 SE 11 15 6 8 1017.0 - 0.0
25/10:00pm 21.5 21.4 17.8 79 2.3 SE 15 19 8 10 1016.9 - 0.0
25/09:30pm 21.7 21.1 17.5 77 2.6 SE 17 22 9 12 1016.7 - 0.0
25/09:00pm 21.8 21.8 17.2 75 2.8 SE 13 17 7 9 1016.5 1016.4 0.0
25/08:30pm 22.3 22.0 17.3 73 3.1 ESE 15 24 8 13 1015.9 - 0.0
25/08:00pm 22.6 21.3 17.2 71 3.3 SE 20 28 11 15 1015.8 - 0.0
25/07:30pm 23.4 22.7 17.3 68 3.8 ESE 17 30 9 16 1015.0 - 0.0
25/07:00pm 24.0 22.2 17.0 65 4.3 E 22 30 12 16 1014.2 - 0.0
25/06:30pm 24.8 21.8 16.7 60 5.0 ENE 28 39 15 21 1013.7 - 0.0
25/06:00pm 25.6 22.1 16.5 57 5.6 E 30 41 16 22 1013.4 1013.3 0.0
25/05:30pm 27.3 23.9 15.9 49 7.0 ENE 28 37 15 20 1013.1 - 0.0
25/05:00pm 28.4 24.2 15.7 46 7.8 ENE 32 37 17 20 1012.8 - 0.0
25/04:30pm 29.5 26.5 15.9 43 8.4 ENE 26 33 14 18 1012.7 - 0.0
25/04:00pm 30.0 26.3 15.0 40 9.2 ENE 28 33 15 18 1012.8 - 0.0
25/03:30pm 30.2 26.7 15.4 40 9.1 ENE 28 35 15 19 1013.0 - 0.0
25/03:00pm 31.1 27.5 15.2 38 9.8 ENE 28 37 15 20 1013.4 1013.3 0.0
25/02:30pm 33.3 30.6 10.5 24 13.2 NE 15 24 8 13 1013.5 - 0.0
25/02:00pm 32.2 30.0 10.8 27 12.4 N 13 20 7 11 1014.1 - 0.0
25/01:30pm 32.3 30.0 10.6 26 12.5 NNW 13 24 7 13 1014.7 - 0.0
25/01:00pm 31.9 29.8 11.3 28 12.0 NNW 13 24 7 13 1015.3 - 0.0
25/12:30pm 30.7 29.1 11.4 30 11.2 NW 11 24 6 13 1016.2 - 0.0
25/12:00pm 29.9 27.9 11.4 32 10.7 N 13 30 7 16 1017.0 1016.9 0.0
25/11:30am 29.5 27.8 11.2 32 10.5 NW 11 20 6 11 1017.4 - 0.0
25/11:00am 28.2 25.4 11.2 34 9.7 NW 17 26 9 14 1018.2 - 0.0
25/10:30am 27.4 25.1 11.9 38 8.9 NNW 15 28 8 15 1019.0 - 0.0
25/10:00am 26.5 23.2 11.6 39 8.5 NW 20 32 11 17 1019.5 - 0.0
25/09:30am 25.7 22.6 11.6 41 8.0 N 19 28 10 15 1020.1 - 0.0
25/09:00am 23.9 21.4 12.3 48 6.6 NNW 17 24 9 13 1020.5 1020.5 0.0
25/08:30am 23.2 20.7 12.3 50 6.2 NW 17 28 9 15 1020.9 - 0.0
25/08:00am 22.6 20.1 12.4 52 5.8 NW 17 26 9 14 1020.9 - 0.0
25/07:30am 20.6 20.3 13.2 62 4.2 NNW 7 11 4 6 1021.0 - 0.0
25/07:00am 18.7 19.6 14.0 74 2.7 S 2 6 1 3 1021.1 - 0.0
25/06:30am 17.2 18.5 14.0 81 1.8 SSW 0 0 0 0 1020.8 - 0.0
25/06:00am 14.5 15.4 13.0 91 0.8 CALM 0 0 0 0 1020.6 1020.6 0.0
25/05:30am 12.7 13.3 11.8 94 0.5 CALM 0 0 0 0 1020.4 - 0.0
25/05:00am 12.5 12.9 11.4 93 0.6 CALM 0 0 0 0 1020.0 - 0.0
25/04:30am 12.6 13.1 11.7 94 0.5 CALM 0 0 0 0 1019.5 - 0.0
25/04:00am 13.1 13.9 12.4 95 0.4 CALM 0 0 0 0 1019.4 - 0.0
25/03:30am 13.8 14.5 12.3 91 0.8 CALM 0 0 0 0 1019.4 - 0.0
25/03:00am 14.2 15.2 13.3 94 0.5 CALM 0 0 0 0 1019.1 1019.0 0.0
25/02:30am 14.4 15.4 13.1 92 0.7 CALM 0 0 0 0 1019.1 - 0.0
25/02:00am 14.7 15.6 12.9 89 1.0 CALM 0 0 0 0 1019.2 - 0.0
25/01:30am 15.4 16.5 13.4 88 1.1 CALM 0 0 0 0 1019.2 - 0.0
25/01:00am 15.0 15.9 13.0 88 1.1 CALM 0 0 0 0 1019.6 - 0.0
25/12:30am 17.2 16.7 13.7 80 2.0 SW 9 11 5 6 1020.1 - 0.0
25/12:00am 15.6 14.9 13.3 86 1.3 ENE 9 9 5 5 1020.0 1019.9 0.0
 
Date/Time
EST
Tmp

°C
App
Tmp
°C
Dew
Point
°C
Rel
Hum
%
Delta-T

°C
Wind Press
QNH
hPa
Press
MSL
hPa
Rain
since
9 am
mm
Dir
 
Spd
km/h
Gust
km/h
Spd
kts
Gust
kts
24/11:30pm 17.1 16.8 13.4 79 2.1 ENE 7 7 4 4 1021.0 - 0.0
24/11:00pm 18.3 18.3 13.7 74 2.6 ENE 6 7 3 4 1021.6 - 0.0
24/10:30pm 19.4 19.3 13.8 70 3.2 ENE 7 9 4 5 1021.6 - 0.0
24/10:00pm 19.6 18.8 14.0 70 3.2 ENE 11 13 6 7 1021.5 - 0.0
24/09:30pm 20.0 18.3 13.5 66 3.7 ENE 15 19 8 10 1021.7 - 0.0
24/09:00pm 20.2 18.2 13.9 67 3.6 E 17 20 9 11 1021.8 1021.8 0.0
24/08:30pm 20.5 18.5 13.9 66 3.8 ENE 17 20 9 11 1021.4 - 0.0
24/08:00pm 21.0 18.6 13.7 63 4.2 ENE 19 26 10 14 1020.9 - 0.0
24/07:30pm 21.2 17.8 13.7 62 4.3 ENE 24 33 13 18 1020.4 - 0.0
24/07:00pm 21.5 17.7 13.5 60 4.6 ENE 26 35 14 19 1020.0 - 0.0
24/06:30pm 21.8 17.3 13.7 60 4.7 ENE 30 37 16 20 1019.8 - 0.0
24/06:00pm 22.5 17.6 13.7 57 5.1 ENE 32 41 17 22 1019.4 1019.3 0.0
24/05:30pm 23.4 18.5 13.6 54 5.7 ENE 32 43 17 23 1018.7 - 0.0
24/05:00pm 24.6 19.6 13.5 50 6.5 ENE 32 39 17 21 1018.1 - 0.0
24/04:30pm 25.7 20.8 13.8 47 7.0 ENE 32 41 17 22 1017.9 - 0.0
24/04:00pm 26.6 21.6 13.5 44 7.7 NE 32 39 17 21 1017.5 - 0.0
24/03:30pm 27.2 22.6 13.5 42 8.1 ENE 30 39 16 21 1017.6 - 0.0
24/03:00pm 29.1 25.0 13.7 38 9.2 NE 28 35 15 19 1017.6 1017.5 0.0
24/02:30pm 28.7 24.4 13.1 38 9.2 ENE 28 37 15 20 1017.8 - 0.0
24/02:00pm 29.9 27.4 12.3 33 10.3 NE 17 32 9 17 1018.1 - 0.0
24/01:30pm 29.7 28.1 10.3 30 11.0 NNE 9 17 5 9 1018.5 - 0.0
24/01:00pm 29.2 28.3 11.3 33 10.3 NNE 7 19 4 10 1019.0 - 0.0
24/12:30pm 29.0 27.7 11.2 33 10.2 WSW 9 15 5 8 1019.6 - 0.0
24/12:00pm 27.3 26.0 11.3 37 9.1 E 9 15 5 8 1020.0 1019.9 0.0
24/11:30am 27.2 26.5 12.1 39 8.7 ENE 7 15 4 8 1020.5 - 0.0
24/11:00am 26.3 25.3 12.4 42 8.0 WSW 9 15 5 8 1021.3 - 0.0
24/10:30am 25.7 24.7 12.3 43 7.7 W 9 15 5 8 1021.5 - 0.0
24/10:00am 24.9 24.3 12.3 45 7.2 E 7 11 4 6 1021.9 - 0.0
24/09:30am 24.4 23.9 12.1 46 7.0 E 6 11 3 6 1022.6 - 0.0
24/09:00am 22.1 21.2 12.6 55 5.4 W 9 13 5 7 1022.8 1022.8 0.0
24/08:30am 22.2 21.8 12.9 55 5.3 NE 7 13 4 7 1022.7 - 0.0
24/08:00am 21.8 21.4 13.0 57 5.0 S 7 13 4 7 1022.8 - 0.0
24/07:30am 20.0 20.0 13.7 67 3.6 WSW 6 11 3 6 1022.7 - 0.0
24/07:00am 18.5 18.3 13.6 73 2.8 WSW 7 9 4 5 1022.7 - 0.0
24/06:30am 16.5 17.6 13.5 82 1.7 CALM 0 0 0 0 1022.4 - 0.0
24/06:00am 13.8 14.7 12.9 94 0.5 CALM 0 0 0 0 1022.3 1022.3 0.0
24/05:30am 12.7 13.3 11.9 95 0.4 CALM 0 0 0 0 1021.9 - 0.0
24/05:00am 12.5 13.0 11.6 94 0.5 CALM 0 0 0 0 1021.7 - 0.0
24/04:30am 12.9 13.6 12.3 96 0.3 CALM 0 0 0 0 1021.4 - 0.0
24/04:00am 13.0 13.7 12.1 94 0.5 CALM 0 0 0 0 1020.8 - 0.0
24/03:30am 12.9 12.3 11.6 92 0.7 NNW 6 7 3 4 1020.7 - 0.0
24/03:00am 12.7 12.8 11.6 93 0.6 NW 2 9 1 5 1020.5 1020.5 0.0
24/02:30am 14.5 15.4 12.9 90 0.9 CALM 0 0 0 0 1020.4 - 0.0
24/02:00am 14.8 15.7 12.8 88 1.1 CALM 0 6 0 3 1020.4 - 0.0
24/01:30am 15.0 14.4 12.4 84 1.4 NW 7 9 4 5 1020.5 - 0.0
24/01:00am 16.7 16.3 12.9 78 2.1 E 7 9 4 5 1020.5 - 0.0
24/12:30am 18.2 18.1 13.4 73 2.7 E 6 7 3 4 1020.9 - 0.0
24/12:00am 19.0 17.6 13.3 69 3.2 E 13 15 7 8 1020.8 1020.8 0.0
 
Date/Time
EST
Tmp

°C
App
Tmp
°C
Dew
Point
°C
Rel
Hum
%
Delta-T

°C
Wind Press
QNH
hPa
Press
MSL
hPa
Rain
since
9 am
mm
Dir
 
Spd
km/h
Gust
km/h
Spd
kts
Gust
kts
23/11:30pm 19.4 17.2 13.2 67 3.5 ENE 17 20 9 11 1021.0 - 0.0
23/11:00pm 19.7 17.5 13.2 66 3.7 ENE 17 24 9 13 1021.1 - 0.0
23/10:30pm 19.8 17.9 13.1 65 3.8 E 15 22 8 12 1021.2 - 0.0
23/10:00pm 20.1 16.9 13.0 63 4.0 ENE 22 32 12 17 1020.2 - 0.0
23/09:30pm 20.3 17.7 13.1 63 4.1 ENE 19 24 10 13 1020.7 - 0.0
23/09:00pm 20.4 18.5 13.0 62 4.2 E 15 20 8 11 1021.0 1021.0 0.0
23/08:30pm 20.6 18.8 13.2 62 4.2 E 15 19 8 10 1021.0 - 0.0
23/08:00pm 21.0 18.4 13.1 60 4.5 ESE 19 26 10 14 1020.7 - 0.0
23/07:30pm 21.3 19.0 13.1 59 4.7 E 17 26 9 14 1020.3 - 0.0
23/07:00pm 21.7 17.2 12.7 56 5.1 E 28 37 15 20 1019.0 - 0.0
23/06:30pm 22.2 17.7 12.5 54 5.5 E 28 35 15 19 1018.2 - 0.0
23/06:00pm 23.0 18.4 12.2 50 6.1 E 28 37 15 20 1017.7 1017.6 0.0
23/05:30pm 24.5 20.6 12.0 45 7.1 E 24 33 13 18 1017.4 - 0.0
23/05:00pm 25.9 21.1 11.7 41 8.1 E 28 35 15 19 1016.6 - 0.0
23/04:30pm 27.7 22.9 11.5 36 9.3 ENE 28 32 15 17 1015.9 - 0.0
23/04:00pm 28.5 23.9 11.0 33 10.0 NE 26 32 14 17 1015.8 - 0.0
23/03:30pm 28.9 24.4 10.1 31 10.6 NE 24 33 13 18 1015.6 - 0.0
23/03:00pm 29.6 27.2 8.8 27 11.5 NNE 11 19 6 10 1015.6 1015.5 0.0
23/02:30pm 30.6 28.8 9.4 26 11.9 S 9 15 5 8 1016.1 - 0.0
23/02:00pm 29.7 27.6 8.4 26 11.7 SSE 9 19 5 10 1016.5 - 0.0
23/01:30pm 28.9 26.5 10.1 31 10.6 NNW 13 19 7 10 1017.3 - 0.0
23/01:00pm 29.0 27.6 9.7 30 10.8 NW 7 13 4 7 1018.0 - 0.0
23/12:30pm 27.4 26.0 9.5 32 9.9 SW 7 15 4 8 1018.6 - 0.0
23/12:00pm 26.0 24.2 9.6 35 9.0 N 9 17 5 9 1019.3 1019.2 0.0
23/11:30am 25.3 24.1 10.3 38 8.3 NNE 7 15 4 8 1020.0 - 0.0
23/11:00am 24.9 23.0 9.2 37 8.5 W 9 17 5 9 1020.6 - 0.0
23/10:30am 23.9 22.8 10.0 41 7.6 WSW 6 15 3 8 1021.1 - 0.0
23/10:00am 23.4 21.9 10.5 44 7.1 NNW 9 15 5 8 1021.8 - 0.0
23/09:30am 22.2 20.9 10.0 46 6.6 NNW 7 17 4 9 1022.1 - 0.0
23/09:00am 21.1 19.6 10.6 51 5.7 WNW 9 15 5 8 1022.6 1022.6 0.0
23/08:30am 21.1 20.3 10.9 52 5.6 SW 6 11 3 6 1022.8 - 0.0
23/08:00am 19.4 18.2 11.6 60 4.3 SSW 9 15 5 8 1023.0 - 0.0
23/07:30am 18.1 17.9 11.7 66 3.5 SSW 4 9 2 5 1023.0 - 0.0
23/07:00am 15.8 15.1 11.3 74 2.4 SSW 6 7 3 4 1022.9 - 0.0
23/06:30am 14.0 14.5 11.6 85 1.3 CALM 0 0 0 0 1022.9 - 0.0
23/06:00am 12.1 12.4 10.9 92 0.6 CALM 0 0 0 0 1022.4 1022.4 0.0
23/05:30am 9.6 9.4 9.2 97 0.2 CALM 0 0 0 0 1022.2 - 0.0
23/05:27am 9.6 9.4 9.2 97 0.2 CALM 0 0 0 0 1022.1 - 0.0
23/05:05am 9.7 9.5 9.1 96 0.3 CALM 0 0 0 0 1022.0 - 0.0
23/05:00am 9.6 9.4 9.2 97 0.2 CALM 0 0 0 0 1022.0 - 0.0
23/04:30am 10.1 10.0 9.5 96 0.3 CALM 0 0 0 0 1021.9 - 0.0
23/04:00am 10.4 10.3 9.6 95 0.4 CALM 0 0 0 0 1021.8 - 0.0
23/03:30am 11.0 11.1 10.2 95 0.4 CALM 0 0 0 0 1021.7 - 0.0
23/03:00am 11.2 11.3 10.2 94 0.5 CALM 0 0 0 0 1021.8 1021.8 0.0
23/02:30am 11.3 11.3 9.9 91 0.7 CALM 0 0 0 0 1021.8 - 0.0
23/02:00am 11.5 11.6 10.1 91 0.7 CALM 0 0 0 0 1022.0 - 0.0
23/01:30am 12.3 12.6 10.8 90 0.8 CALM 0 0 0 0 1022.1 - 0.0
23/01:00am 12.5 12.8 10.8 89 0.9 CALM 0 0 0 0 1022.5 - 0.0
23/12:30am 12.2 12.1 10.7 90 0.8 SSW 2 6 1 3 1022.8 - 0.0
23/12:00am 11.5 11.6 10.1 91 0.7 CALM 0 0 0 0 1022.8 1022.8 0.0
 
Date/Time
EST
Tmp

°C
App
Tmp
°C
Dew
Point
°C
Rel
Hum
%
Delta-T

°C
Wind Press
QNH
hPa
Press
MSL
hPa
Rain
since
9 am
mm
Dir
 
Spd
km/h
Gust
km/h
Spd
kts
Gust
kts
22/11:30pm 12.8 13.2 11.1 89 0.9 CALM 0 0 0 0 1023.1 - 0.0

Latest Capital City Observations: Canberra | Sydney | Melbourne | Brisbane | Adelaide | Perth | Hobart | Darwin

Other Formats:

Comma delimited format used in spreadsheet applications
http://www.bom.gov.au/fwo/IDQ60901/IDQ60901.94568.axf

JavaScript Object Notation format (JSON) in row-major order
http://www.bom.gov.au/fwo/IDQ60901/IDQ60901.94568.json